Middleton, WI

10:55 PM CST on November 18, 2017 (GMT -0600)
Middleton

Weather History for KC29 - March, 2013

Change the Weather History Date:

Wednesday, March 20, 2013

  Actual Average (KMSN) Record (KMSN)
Temperature  
Mean Temperature 16 °F -  
Max Temperature 23 °F 44 °F 81 °F (2012)
Min Temperature 9 °F 25 °F -7 °F (1965)
Degree Days  
Heating Degree Days 49    
Moisture  
Dew Point 2 °F    
Average Humidity 54    
Maximum Humidity 60    
Minimum Humidity 45    
Precipitation  
Precipitation 0.00 in - - ()
Sea Level Pressure  
Sea Level Pressure 30.04 in    
Wind  
Wind Speed 14 mph (WNW)    
Max Wind Speed 20 mph    
Max Gust Speed 28 mph    
Visibility 10 miles    
Events      
Averages and records for this station are not official NWS values.
T = Trace of Precipitation, MM = Missing Value Source: NWS Daily Summary

Daily Weather History Graph

Daily Weather History Graph

Search for Another Location

Airport or City:

Trip Planner

Search our weather history database for the weather conditions in past years. The results will help you decide how hot, cold, wet, or windy it might be!

Date:

Astronomy

Mar. 20, 2013 Rise Set
Actual Time 7:00 AM CDT 7:10 PM CDT
Civil Twilight 6:32 AM CDT 7:39 PM CDT
Nautical Twilight 5:59 AM CDT 8:12 PM CDT
Astronomical Twilight 5:25 AM CDT 8:46 PM CDT
Moon 12:37 PM CDT (3/20) 2:49 AM CDT (3/20)
Length of Visible Light 13h 06m
Length of Day
12h 09m
First Quarter, 59% of the Moon is Illuminated
Mar 20
First Quarter
Mar 27
Full
Apr 2
Last Quarter
Apr 10
New
Apr 18
First Quarter

Hourly Weather History & Observations

Time (CDT) Temp. Windchill Dew Point Humidity Pressure Visibility Wind Dir Wind Speed Gust Speed Precip Events Conditions
12:15 AM 18.5 °F 3.8 °F 5.9 °F 58% 30.04 in 10.0 mi West 16.1 mph - N/A   Clear
12:35 AM 18.0 °F 5.4 °F 5.5 °F 58% 30.04 in 10.0 mi West 11.5 mph - N/A   Clear
12:55 AM 17.2 °F 3.3 °F 5.5 °F 60% 30.04 in 10.0 mi West 13.8 mph - N/A   Clear
1:15 AM 17.1 °F 1.0 °F 3.9 °F 56% 30.04 in 10.0 mi WNW 18.4 mph 23.0 mph N/A   Clear
1:35 AM 16.2 °F 2.5 °F 4.1 °F 59% 30.04 in 10.0 mi West 12.7 mph - N/A   Clear
1:55 AM 15.8 °F 2.1 °F 3.7 °F 59% 30.05 in 10.0 mi West 12.7 mph 21.9 mph N/A   Clear
2:15 AM 15.3 °F 1.4 °F 3.2 °F 59% 30.05 in 10.0 mi WNW 12.7 mph - N/A   Clear
2:35 AM 14.9 °F 0.9 °F 2.7 °F 58% 30.05 in 10.0 mi West 12.7 mph - N/A   Clear
2:55 AM 14.4 °F -0.4 °F 2.3 °F 59% 30.04 in 10.0 mi WNW 13.8 mph 20.7 mph N/A   Clear
3:15 AM 14.0 °F -0.8 °F 2.1 °F 59% 30.05 in 10.0 mi WNW 13.8 mph - N/A   Clear
3:35 AM 13.6 °F -2.4 °F 1.6 °F 59% 30.05 in 10.0 mi WNW 16.1 mph 24.2 mph N/A   Clear
3:55 AM 13.1 °F -2.0 °F 1.0 °F 59% 30.05 in 10.0 mi WNW 13.8 mph - N/A   Clear
4:15 AM 12.7 °F -3.0 °F 0.5 °F 58% 30.05 in 10.0 mi WNW 15.0 mph - N/A   Clear
4:35 AM 12.6 °F -2.0 °F -0.0 °F 57% 30.05 in 10.0 mi WNW 12.7 mph 18.4 mph N/A   Clear
4:55 AM 12.2 °F -3.7 °F -0.4 °F 57% 30.05 in 10.0 mi WNW 15.0 mph - N/A   Clear
5:15 AM 11.7 °F -2.5 °F -0.6 °F 58% 30.05 in 10.0 mi WNW 11.5 mph - N/A   Clear
5:35 AM 11.3 °F -4.3 °F -0.9 °F 58% 30.05 in 10.0 mi WNW 13.8 mph 19.6 mph N/A   Clear
5:55 AM 11.1 °F -4.5 °F -1.3 °F 57% 30.05 in 10.0 mi WNW 13.8 mph - N/A   Clear
6:15 AM 10.6 °F -7.4 °F -1.3 °F 59% 30.05 in 10.0 mi WNW 18.4 mph 24.2 mph N/A   Clear
6:35 AM 10.4 °F -6.6 °F -1.8 °F 58% 30.06 in 10.0 mi WNW 16.1 mph - N/A   Clear
6:55 AM 10.2 °F -6.9 °F -2.2 °F 57% 30.06 in 10.0 mi WNW 16.1 mph 23.0 mph N/A   Clear
7:15 AM 9.9 °F -7.9 °F -2.2 °F 58% 30.06 in 10.0 mi WNW 17.3 mph 21.9 mph N/A   Clear
7:35 AM 10.0 °F -5.9 °F -2.2 °F 58% 30.07 in 10.0 mi WNW 13.8 mph 21.9 mph N/A   Clear
7:55 AM 10.4 °F -4.8 °F -2.4 °F 56% 30.08 in 10.0 mi WNW 12.7 mph - N/A   Clear
8:15 AM 10.8 °F -5.6 °F -2.6 °F 55% 30.07 in 10.0 mi WNW 15.0 mph - N/A   Clear
8:35 AM 11.1 °F -4.5 °F -2.2 °F 55% 30.07 in 10.0 mi WNW 13.8 mph 21.9 mph N/A   Clear
8:55 AM 11.7 °F -3.8 °F -2.2 °F 54% 30.07 in 10.0 mi WNW 13.8 mph 21.9 mph N/A   Clear
9:15 AM 12.2 °F -1.0 °F -1.8 °F 53% 30.07 in 10.0 mi WNW 10.4 mph - N/A   Clear
9:55 AM 12.9 °F -4.9 °F -0.9 °F 54% 30.06 in 10.0 mi WNW 19.6 mph 23.0 mph N/A   Clear
10:15 AM 13.8 °F -3.7 °F -0.0 °F 54% 30.06 in 10.0 mi WNW 19.6 mph 24.2 mph N/A   Clear
10:55 AM 15.6 °F -0.4 °F 0.9 °F 52% 30.06 in 10.0 mi WNW 17.3 mph 25.3 mph N/A   Clear
11:15 AM 16.7 °F 1.0 °F 1.8 °F 52% 30.06 in 10.0 mi West 17.3 mph 23.0 mph N/A   Clear
11:35 AM 17.6 °F 1.7 °F 2.1 °F 51% 30.06 in 10.0 mi WNW 18.4 mph - N/A   Clear
11:55 AM 18.0 °F 4.2 °F 2.3 °F 50% 30.05 in 10.0 mi WNW 13.8 mph 27.6 mph N/A   Clear
12:15 PM 18.5 °F 5.5 °F 2.3 °F 49% 30.05 in 10.0 mi WNW 12.7 mph 25.3 mph N/A   Clear
12:35 PM 19.8 °F 5.4 °F 3.2 °F 49% 30.05 in 10.0 mi WNW 16.1 mph - N/A   Clear
12:55 PM 19.8 °F 5.0 °F 2.3 °F 47% 30.04 in 10.0 mi WNW 17.3 mph - N/A   Clear
1:15 PM 20.8 °F 6.8 °F 3.7 °F 48% 30.04 in 10.0 mi WNW 16.1 mph 23.0 mph N/A   Clear
1:35 PM 21.0 °F 7.6 °F 3.0 °F 46% 30.04 in 10.0 mi NW 15.0 mph 23.0 mph N/A   Clear
1:55 PM 21.9 °F 9.8 °F 3.9 °F 46% 30.03 in 10.0 mi NW 12.7 mph - N/A   Scattered Clouds
2:15 PM 22.3 °F 9.2 °F 3.9 °F 45% 30.02 in 10.0 mi WNW 15.0 mph 21.9 mph N/A   Mostly Cloudy
2:35 PM 23.0 °F 9.2 °F 4.3 °F 45% 30.01 in 10.0 mi WNW 17.3 mph 20.7 mph N/A   Scattered Clouds
2:55 PM 21.2 °F 8.9 °F 3.6 °F 47% 30.01 in 10.0 mi NW 12.7 mph - N/A   Mostly Cloudy
3:15 PM 23.4 °F 10.6 °F 5.4 °F 46% 30.01 in 10.0 mi West 15.0 mph 19.6 mph N/A   Overcast
3:35 PM 22.8 °F 9.4 °F 5.4 °F 47% 30.01 in 10.0 mi NW 16.1 mph - N/A   Overcast
3:55 PM 22.6 °F 9.6 °F 5.4 °F 48% 30.01 in 10.0 mi NW 15.0 mph - N/A   Mostly Cloudy
4:15 PM 21.9 °F 8.7 °F 5.0 °F 48% 30.01 in 10.0 mi WNW 15.0 mph 21.9 mph N/A   Mostly Cloudy
4:35 PM 21.2 °F 8.9 °F 4.5 °F 49% 30.01 in 10.0 mi NW 12.7 mph - N/A   Mostly Cloudy
4:55 PM 21.6 °F 9.9 °F 4.8 °F 49% 30.02 in 10.0 mi NW 11.5 mph 19.6 mph N/A   Mostly Cloudy
5:15 PM 21.4 °F 10.4 °F 4.3 °F 48% 30.02 in 10.0 mi NW 10.4 mph - N/A   Overcast
5:35 PM 20.8 °F 6.8 °F 4.8 °F 50% 30.02 in 10.0 mi NNW 16.1 mph - N/A   Overcast
5:55 PM 20.5 °F 6.9 °F 4.5 °F 50% 30.02 in 10.0 mi NW 15.0 mph - N/A   Overcast
6:15 PM 20.3 °F 7.7 °F 4.1 °F 50% 30.03 in 10.0 mi NW 12.7 mph 23.0 mph N/A   Overcast
6:35 PM 20.3 °F 7.7 °F 4.8 °F 51% 30.03 in 10.0 mi NW 12.7 mph 17.3 mph N/A   Overcast
6:55 PM 19.9 °F 7.9 °F 4.3 °F 51% 30.04 in 10.0 mi NW 11.5 mph 17.3 mph N/A   Overcast
7:15 PM 19.2 °F 7.0 °F 4.3 °F 52% 30.04 in 10.0 mi NW 11.5 mph - N/A   Mostly Cloudy
7:35 PM 18.5 °F 6.1 °F 5.0 °F 56% 30.04 in 10.0 mi NNW 11.5 mph - N/A   Scattered Clouds
7:55 PM 18.3 °F 7.3 °F 5.7 °F 58% 30.04 in 10.0 mi NW 9.2 mph - N/A   Scattered Clouds
8:15 PM 18.5 °F 7.5 °F 5.9 °F 58% 30.04 in 10.0 mi NNW 9.2 mph - N/A   Mostly Cloudy
8:35 PM 18.3 °F 7.3 °F 5.2 °F 57% 30.05 in 10.0 mi NNW 9.2 mph - N/A   Mostly Cloudy
8:55 PM 17.8 °F 5.2 °F 3.9 °F 55% 30.04 in 10.0 mi NNW 11.5 mph - N/A   Scattered Clouds
9:15 PM 16.9 °F 4.8 °F 4.3 °F 58% 30.05 in 10.0 mi NNW 10.4 mph - N/A   Clear
9:35 PM 16.7 °F 6.2 °F 3.7 °F 57% 30.05 in 10.0 mi NW 8.1 mph - N/A   Clear
9:55 PM 15.8 °F 7.2 °F 3.4 °F 58% 30.05 in 10.0 mi NW 5.8 mph - N/A   Clear
10:15 PM 15.4 °F 4.6 °F 3.2 °F 59% 30.06 in 10.0 mi NW 8.1 mph - N/A   Clear
10:35 PM 14.9 °F 7.5 °F 3.0 °F 59% 30.06 in 10.0 mi NW 4.6 mph - N/A   Clear
10:55 PM 14.4 °F 6.9 °F 2.8 °F 60% 30.06 in 10.0 mi WNW 4.6 mph - N/A   Clear
11:15 PM 14.4 °F 5.5 °F 2.1 °F 58% 30.05 in 10.0 mi WNW 5.8 mph - N/A   Clear
11:35 PM 14.0 °F 2.9 °F 2.1 °F 59% 30.05 in 10.0 mi WNW 8.1 mph - N/A   Clear
11:55 PM 14.5 °F 3.6 °F 1.8 °F 57% 30.05 in 10.0 mi WNW 8.1 mph - N/A   Clear